Time;durP1;ratioP1;P1;durP2;ratioP2;P2;SDS_P1;SDS_P2;PMS_P1;PMS_P2;Temp;Humidity;BMP_temperature;BMP_pressure;BME280_temperature;BME280_humidity;BME280_pressure;Samples;Min_cycle;Max_cycle;Signal;HPM_P1;HPM_P2
2024/01/02 00:07:27;;;;;;;6.68;2.22;;;;;;;5.67;68.30;99448.03;31350351;27;96958;-65
2024/01/02 00:22:27;;;;;;;4.95;2.10;;;;;;;5.65;68.28;99457.09;31348757;27;97245;-66
2024/01/02 00:37:27;;;;;;;2.35;0.85;;;;;;;5.60;68.23;99460.19;31346524;27;124691;-66
2024/01/02 00:52:27;;;;;;;0.80;0.60;;;;;;;4.90;68.32;99474.19;31343929;27;125350;-65
2024/01/02 01:07:28;;;;;;;4.40;0.80;;;;;;;4.58;68.87;99478.19;31343334;27;125981;-66
2024/01/02 01:22:28;;;;;;;3.75;0.70;;;;;;;4.48;69.43;99469.47;31342737;27;125578;-66
2024/01/02 01:37:28;;;;;;;5.07;1.08;;;;;;;4.44;69.99;99460.22;31341790;27;124433;-66
2024/01/02 01:52:32;;;;;;;2.50;1.10;;;;;;;4.52;70.38;99468.22;31339076;27;125449;-66
2024/01/02 02:07:32;;;;;;;3.37;1.30;;;;;;;4.55;70.92;99446.78;31339665;27;97159;-66
2024/01/02 02:22:34;;;;;;;2.78;0.88;;;;;;;4.48;71.04;99457.13;31337452;27;102607;-66
2024/01/02 02:37:35;;;;;;;2.50;1.10;;;;;;;4.27;71.42;99446.84;31335514;27;97020;-65
2024/01/02 02:52:35;;;;;;;5.30;1.90;;;;;;;3.71;71.89;99448.63;31333885;27;97853;-65
2024/01/02 03:07:35;;;;;;;6.82;2.20;;;;;;;3.47;72.59;99430.69;31340694;27;97708;-64
2024/01/02 03:22:36;;;;;;;6.57;1.90;;;;;;;3.53;73.64;99440.66;31354290;27;126915;-68
2024/01/02 03:37:36;;;;;;;5.55;1.63;;;;;;;3.50;73.52;99433.88;31352193;27;127109;-67
2024/01/02 03:52:36;;;;;;;4.90;1.52;;;;;;;3.05;74.05;99419.56;31349388;27;125684;-67
2024/01/02 04:07:36;;;;;;;6.28;2.67;;;;;;;2.68;74.19;99415.00;31347808;27;97165;-65
2024/01/02 04:22:39;;;;;;;4.60;1.45;;;;;;;2.49;75.22;99396.63;31346108;27;125259;-67
2024/01/02 04:37:39;;;;;;;3.30;1.65;;;;;;;2.33;75.36;99378.75;31345255;27;96598;-65
2024/01/02 04:52:39;;;;;;;5.18;2.10;;;;;;;2.20;75.22;99357.97;31342447;27;124747;-65
2024/01/02 05:07:39;;;;;;;7.38;3.28;;;;;;;2.00;75.39;99368.47;31342190;27;126670;-65
2024/01/02 05:22:40;;;;;;;7.28;2.97;;;;;;;1.88;75.05;99360.84;31338933;27;124764;-66
2024/01/02 05:37:40;;;;;;;14.38;3.33;;;;;;;1.81;75.48;99352.66;31337049;27;96673;-65
2024/01/02 05:52:43;;;;;;;8.75;3.45;;;;;;;1.80;75.37;99362.31;31333556;27;126525;-65
2024/01/02 06:07:44;;;;;;;5.00;2.10;;;;;;;1.79;75.35;99354.56;31335014;27;96888;-65
2024/01/02 06:22:44;;;;;;;5.97;2.38;;;;;;;1.74;75.35;99344.50;31333226;27;126669;-65
2024/01/02 06:37:44;;;;;;;11.63;3.92;;;;;;;1.73;75.84;99344.63;31330738;27;125749;-65
2024/01/02 06:52:44;;;;;;;9.40;3.22;;;;;;;1.93;75.43;99320.06;31329405;27;121577;-65
2024/01/02 07:07:46;;;;;;;9.82;3.70;;;;;;;2.09;75.66;99305.56;31329359;27;125342;-65
2024/01/02 07:22:48;;;;;;;12.77;3.65;;;;;;;2.26;75.40;99301.41;31326448;27;97090;-65
2024/01/02 07:37:49;;;;;;;9.70;3.38;;;;;;;2.43;75.58;99279.66;31327138;27;97236;-65
2024/01/02 07:52:49;;;;;;;12.70;4.35;;;;;;;2.65;75.45;99262.78;31331083;27;97103;-65
2024/01/02 08:07:49;;;;;;;10.68;3.20;;;;;;;2.86;75.10;99251.22;31347447;27;96813;-64
2024/01/02 08:22:49;;;;;;;12.10;5.55;;;;;;;3.12;74.54;99240.88;31345464;27;110997;-65
2024/01/02 08:37:50;;;;;;;9.63;4.50;;;;;;;3.33;75.04;99232.72;31343248;27;118322;-65
2024/01/02 08:52:51;;;;;;;11.20;5.28;;;;;;;3.59;74.77;99218.03;31340577;27;97371;-66
2024/01/02 09:07:53;;;;;;;16.38;5.97;;;;;;;3.80;74.62;99205.38;31339022;27;97263;-66
2024/01/02 09:22:54;;;;;;;18.27;6.80;;;;;;;4.07;74.60;99180.75;31336839;27;96918;-65
2024/01/02 09:37:55;;;;;;;11.88;4.93;;;;;;;4.35;74.64;99164.78;31336062;27;96958;-65
2024/01/02 09:53:38;;;;;;;11.07;3.70;;;;;;;4.91;74.35;99114.28;31335413;27;97409;-64
2024/01/02 10:09:00;;;;;;;10.50;4.30;;;;;;;5.29;73.50;99101.50;31335540;27;97441;-64
2024/01/02 10:24:11;;;;;;;9.33;2.77;;;;;;;5.47;72.62;99068.81;31333505;27;97365;-65
2024/01/02 10:39:26;;;;;;;12.67;3.93;;;;;;;5.93;72.37;99029.47;31333018;27;97345;-66
2024/01/02 10:54:53;;;;;;;9.87;2.83;;;;;;;6.25;71.11;99006.59;31331049;27;97178;-66
2024/01/02 11:10:01;;;;;;;10.20;4.00;;;;;;;6.13;70.38;98981.53;31329758;27;97079;-65
2024/01/02 11:25:04;;;;;;;7.57;4.23;;;;;;;6.06;70.59;98963.69;31342558;27;96994;-65
2024/01/02 11:40:21;;;;;;;7.07;2.57;;;;;;;5.98;69.79;98949.69;31347507;27;96603;-65
2024/01/02 11:55:36;;;;;;;9.60;2.20;;;;;;;5.84;69.83;98898.34;31347876;27;97500;-65
2024/01/02 12:10:42;;;;;;;2.83;1.57;;;;;;;5.86;69.89;98854.84;31348193;27;96619;-64
2024/01/02 12:25:43;;;;;;;4.67;2.07;;;;;;;5.73;70.54;98821.06;31345821;27;97344;-65
2024/01/02 12:40:48;;;;;;;6.93;2.20;;;;;;;5.58;70.65;98793.75;31340494;27;96661;-65
2024/01/02 12:55:56;;;;;;;6.00;2.00;;;;;;;5.37;71.09;98775.81;31341675;27;99438;-65
2024/01/02 13:10:57;;;;;;;3.77;1.93;;;;;;;5.41;71.32;98767.41;31340631;27;96745;-65
2024/01/02 13:25:58;;;;;;;5.80;2.00;;;;;;;5.41;70.89;98732.22;31336252;27;121373;-66
2024/01/02 13:41:04;;;;;;;1.95;0.90;;;;;;;5.39;70.74;98711.28;31336638;27;99196;-66
2024/01/02 13:56:05;;;;;;;2.85;1.27;;;;;;;5.28;70.60;98687.91;31335478;27;96857;-65
2024/01/02 14:11:07;;;;;;;3.63;1.37;;;;;;;5.15;71.00;98674.44;31334547;27;97445;-65
2024/01/02 14:26:17;;;;;;;3.85;1.58;;;;;;;5.09;71.37;98657.47;31331201;27;98863;-65
2024/01/02 14:41:55;;;;;;;3.05;1.33;;;;;;;5.00;71.55;98635.59;31331777;27;97466;-65
2024/01/02 14:57:26;;;;;;;2.63;1.02;;;;;;;5.01;71.08;98633.75;31330911;27;97537;-65
2024/01/02 15:12:38;;;;;;;2.40;1.20;;;;;;;5.03;71.10;98595.66;31351306;27;96940;-65
2024/01/02 15:27:49;;;;;;;2.88;1.30;;;;;;;4.97;70.71;98580.50;31351640;27;98417;-65
2024/01/02 15:42:50;;;;;;;2.17;0.90;;;;;;;4.94;70.46;98562.38;31351170;27;97618;-65
2024/01/02 15:57:55;;;;;;;6.18;1.52;;;;;;;4.87;70.49;98548.25;31347990;27;97058;-66
2024/01/02 16:12:59;;;;;;;4.45;2.10;;;;;;;4.82;70.68;98540.00;31346432;27;97506;-66
2024/01/02 16:28:26;;;;;;;5.03;1.93;;;;;;;4.83;70.71;98531.94;31345556;27;96752;-66
2024/01/02 16:43:36;;;;;;;6.30;3.05;;;;;;;4.74;70.53;98496.88;31343730;27;97260;-65
2024/01/02 16:58:37;;;;;;;5.20;2.50;;;;;;;4.65;71.06;98497.09;31341765;27;97554;-66
2024/01/02 17:13:37;;;;;;;6.78;2.47;;;;;;;4.55;71.37;98468.28;31340506;27;96650;-65
2024/01/02 17:28:49;;;;;;;8.05;3.22;;;;;;;4.53;71.48;98436.00;31336845;27;96733;-65
2024/01/02 17:43:50;;;;;;;8.00;4.10;;;;;;;4.58;71.65;98415.22;31337028;27;97424;-65
2024/01/02 17:59:15;;;;;;;6.00;3.70;;;;;;;4.53;71.85;98393.81;31336289;27;97565;-67
2024/01/02 18:14:55;;;;;;;9.73;4.33;;;;;;;4.52;72.27;98381.59;31333486;27;97033;-66
2024/01/02 18:30:15;;;;;;;13.30;6.10;;;;;;;4.51;72.60;98364.97;31331395;27;98311;-65
2024/01/02 18:45:29;;;;;;;8.80;4.68;;;;;;;4.51;73.20;98343.03;31331054;27;97034;-65
2024/01/02 19:00:32;;;;;;;12.30;5.03;;;;;;;4.52;73.33;98337.59;31332015;27;97358;-65
2024/01/02 19:15:36;;;;;;;6.57;3.70;;;;;;;4.54;73.97;98327.69;31331152;27;98496;-66
2024/01/02 19:30:44;;;;;;;10.47;3.87;;;;;;;4.58;74.90;98307.88;31328361;27;97500;-65
2024/01/02 19:45:45;;;;;;;6.15;3.35;;;;;;;4.65;74.84;98268.44;31329935;27;96634;-66
2024/01/02 20:00:50;;;;;;;12.73;4.47;;;;;;;4.68;75.27;98254.06;31349546;27;97076;-66
2024/01/02 20:15:51;;;;;;;7.73;3.03;;;;;;;4.69;75.81;98256.53;31348305;27;97088;-65
2024/01/02 20:30:51;;;;;;;4.90;2.92;;;;;;;4.67;76.19;98242.69;31346426;27;98624;-65
2024/01/02 20:45:53;;;;;;;9.10;3.05;;;;;;;4.71;76.52;98222.84;31344766;27;96706;-66
2024/01/02 21:00:54;;;;;;;8.60;2.90;;;;;;;4.79;76.77;98198.22;31343440;27;96837;-65
2024/01/02 21:15:56;;;;;;;6.90;2.67;;;;;;;4.81;77.28;98185.69;31341776;27;97083;-65
2024/01/02 21:31:00;;;;;;;10.27;3.30;;;;;;;4.82;77.46;98170.66;31340336;27;97370;-65
2024/01/02 21:46:26;;;;;;;5.27;1.97;;;;;;;4.87;77.70;98163.81;31338232;27;97473;-65
2024/01/02 22:01:29;;;;;;;4.32;2.08;;;;;;;4.89;78.40;98130.19;31338615;27;97208;-66
2024/01/02 22:16:29;;;;;;;4.63;2.05;;;;;;;4.97;78.61;98108.13;31334424;27;97521;-66
2024/01/02 22:31:30;;;;;;;6.35;2.60;;;;;;;5.03;78.62;98077.53;31334862;27;125250;-66
2024/01/02 22:46:30;;;;;;;4.78;1.92;;;;;;;5.08;78.93;98052.25;31335691;27;96748;-67
2024/01/02 23:01:30;;;;;;;5.82;2.63;;;;;;;5.14;78.62;98037.47;31335668;27;97133;-65
2024/01/02 23:16:30;;;;;;;4.95;2.50;;;;;;;5.09;78.69;98014.25;31332299;27;118438;-65
2024/01/02 23:31:35;;;;;;;5.75;2.55;;;;;;;5.18;79.50;98000.94;31350835;27;97032;-65
2024/01/02 23:46:35;;;;;;;;;;;;;;;5.20;79.09;97978.63;31352645;27;97499;-65
